PWSweather.com
Personal Weather Stations
Station Observations
KMIEASTT1
Tawas Bay, East Tawas, MI 48730

Tawas BayEast Tawas, MI 48730

Lat: 44.28, Lon: -83.48

Elevation: 600

Station Type: Davis VantagePro

http://www.tawasbayweather.com

High Low Average
Temperature 32.7°F0.4°C 22.6°F-5.2°C 26.7°F-2.9°C
Dew Point 24.8°F-4.0°C 16.3°F-8.7°C 20.3°F-6.5°C
Winds 18.0 mph 29.0 kmh Calm Calm 9.0 mph WSW14.5 kmh WSW
Wind Gusts 22.0 mph35.4 kmh 2.0 mph3.2 kmh 13.0 mph20.9 kmh
Humidity 82% 68% 77%
Pressure 30.15 in1021.0 mb 29.85 in1010.8 mb -
Precipitation 0.00 in0.0 mm - -
Hour Temp Dew Point Humidity Winds Wind Gusts Pressure Precip Precip Rate Daily Precip Total
12:01 AM 23.8°F-4.6°C 18.5°F-7.5°C 80% 14.0 mph SSW22.5 kmh SSW 19.0 mph30.6 kmh 30.17 in1021.7 mb 0.00 in0.0 mm 0.00 in/hr0.0 mm/hr 0.00 in0.0 mm
12:15 AM 24.0°F-4.4°C 19.0°F-7.2°C 81% 11.0 mph SSW17.7 kmh SSW 17.0 mph27.4 kmh 30.17 in1021.7 mb 0.00 in0.0 mm 0.00 in/hr0.0 mm/hr 0.00 in0.0 mm
12:30 AM 23.9°F-4.5°C 19.2°F-7.1°C 82% 13.0 mph SW20.9 kmh SW 17.0 mph27.4 kmh 30.17 in1021.7 mb 0.00 in0.0 mm 0.00 in/hr0.0 mm/hr 0.00 in0.0 mm
12:45 AM 24.0°F-4.4°C 19.0°F-7.2°C 81% 16.0 mph SW25.7 kmh SW 18.0 mph29.0 kmh 30.16 in1021.3 mb 0.00 in0.0 mm 0.00 in/hr0.0 mm/hr 0.00 in0.0 mm
01:01 AM 24.1°F-4.4°C 19.1°F-7.2°C 81% 17.0 mph SW27.4 kmh SW 20.0 mph32.2 kmh 30.15 in1021.0 mb 0.00 in0.0 mm 0.00 in/hr0.0 mm/hr 0.00 in0.0 mm
01:15 AM 24.1°F-4.4°C 19.1°F-7.2°C 81% 16.0 mph SSW25.7 kmh SSW 20.0 mph32.2 kmh 30.14 in1020.7 mb 0.00 in0.0 mm 0.00 in/hr0.0 mm/hr 0.00 in0.0 mm
01:30 AM 24.1°F-4.4°C 19.1°F-7.2°C 81% 13.0 mph SW20.9 kmh SW 22.0 mph35.4 kmh 30.14 in1020.7 mb 0.00 in0.0 mm 0.00 in/hr0.0 mm/hr 0.00 in0.0 mm
01:45 AM 24.3°F-4.3°C 19.3°F-7.1°C 81% 18.0 mph SW29.0 kmh SW 22.0 mph35.4 kmh 30.12 in1020.0 mb 0.00 in0.0 mm 0.00 in/hr0.0 mm/hr 0.00 in0.0 mm
02:01 AM 24.5°F-4.2°C 19.5°F-6.9°C 81% 17.0 mph SSW27.4 kmh SSW 21.0 mph33.8 kmh 30.12 in1020.0 mb 0.00 in0.0 mm 0.00 in/hr0.0 mm/hr 0.00 in0.0 mm
02:15 AM 24.4°F-4.2°C 19.4°F-7.0°C 81% 16.0 mph SW25.7 kmh SW 22.0 mph35.4 kmh 30.11 in1019.6 mb 0.00 in0.0 mm 0.00 in/hr0.0 mm/hr 0.00 in0.0 mm
02:30 AM 24.5°F-4.2°C 19.8°F-6.8°C 82% 17.0 mph SW27.4 kmh SW 20.0 mph32.2 kmh 30.10 in1019.3 mb 0.00 in0.0 mm 0.00 in/hr0.0 mm/hr 0.00 in0.0 mm
02:45 AM 24.6°F-4.1°C 19.6°F-6.9°C 81% 17.0 mph SW27.4 kmh SW 21.0 mph33.8 kmh 30.10 in1019.3 mb 0.00 in0.0 mm 0.00 in/hr0.0 mm/hr 0.00 in0.0 mm
03:01 AM 24.4°F-4.2°C 19.1°F-7.2°C 80% 13.0 mph SW20.9 kmh SW 19.0 mph30.6 kmh 30.10 in1019.3 mb 0.00 in0.0 mm 0.00 in/hr0.0 mm/hr 0.00 in0.0 mm
03:15 AM 24.5°F-4.2°C 18.9°F-7.3°C 79% 15.0 mph SW24.1 kmh SW 19.0 mph30.6 kmh 30.09 in1019.0 mb 0.00 in0.0 mm 0.00 in/hr0.0 mm/hr 0.00 in0.0 mm
03:30 AM 24.6°F-4.1°C 19.3°F-7.1°C 80% 15.0 mph SW24.1 kmh SW 18.0 mph29.0 kmh 30.10 in1019.3 mb 0.00 in0.0 mm 0.00 in/hr0.0 mm/hr 0.00 in0.0 mm
03:45 AM 24.3°F-4.3°C 17.5°F-8.1°C 75% 11.0 mph SW17.7 kmh SW 19.0 mph30.6 kmh 30.09 in1019.0 mb 0.00 in0.0 mm 0.00 in/hr0.0 mm/hr 0.00 in0.0 mm
04:01 AM 24.4°F-4.2°C 18.5°F-7.5°C 78% 17.0 mph SSW27.4 kmh SSW 17.0 mph27.4 kmh 30.08 in1018.6 mb 0.00 in0.0 mm 0.00 in/hr0.0 mm/hr 0.00 in0.0 mm
04:15 AM 24.4°F-4.2°C 18.8°F-7.3°C 79% 15.0 mph S24.1 kmh S 18.0 mph29.0 kmh 30.07 in1018.3 mb 0.00 in0.0 mm 0.00 in/hr0.0 mm/hr 0.00 in0.0 mm
04:30 AM 24.4°F-4.2°C 18.5°F-7.5°C 78% 16.0 mph SW25.7 kmh SW 20.0 mph32.2 kmh 30.06 in1017.9 mb 0.00 in0.0 mm 0.00 in/hr0.0 mm/hr 0.00 in0.0 mm
04:45 AM 24.4°F-4.2°C 18.5°F-7.5°C 78% 15.0 mph SW24.1 kmh SW 20.0 mph32.2 kmh 30.04 in1017.3 mb 0.00 in0.0 mm 0.00 in/hr0.0 mm/hr 0.00 in0.0 mm
05:01 AM 24.2°F-4.3°C 18.3°F-7.6°C 78% 18.0 mph SW29.0 kmh SW 20.0 mph32.2 kmh 30.04 in1017.3 mb 0.00 in0.0 mm 0.00 in/hr0.0 mm/hr 0.00 in0.0 mm
05:15 AM 24.1°F-4.4°C 18.0°F-7.8°C 77% 18.0 mph SW29.0 kmh SW 20.0 mph32.2 kmh 30.03 in1016.9 mb 0.00 in0.0 mm 0.00 in/hr0.0 mm/hr 0.00 in0.0 mm
05:30 AM 23.9°F-4.5°C 18.4°F-7.6°C 79% 16.0 mph SW25.7 kmh SW 21.0 mph33.8 kmh 30.02 in1016.6 mb 0.00 in0.0 mm 0.00 in/hr0.0 mm/hr 0.00 in0.0 mm
05:45 AM 23.9°F-4.5°C 18.4°F-7.6°C 79% 18.0 mph SW29.0 kmh SW 20.0 mph32.2 kmh 30.02 in1016.6 mb 0.00 in0.0 mm 0.00 in/hr0.0 mm/hr 0.00 in0.0 mm
06:00 AM 23.5°F-4.7°C 17.4°F-8.1°C 77% 13.0 mph SW20.9 kmh SW 18.0 mph29.0 kmh 30.02 in1016.6 mb 0.00 in0.0 mm 0.00 in/hr0.0 mm/hr 0.00 in0.0 mm
06:15 AM 23.2°F-4.9°C 17.4°F-8.1°C 78% 12.0 mph SW19.3 kmh SW 15.0 mph24.1 kmh 30.02 in1016.6 mb 0.00 in0.0 mm 0.00 in/hr0.0 mm/hr 0.00 in0.0 mm
06:30 AM 22.7°F-5.2°C 16.3°F-8.7°C 76% 8.0 mph WSW12.9 kmh WSW 13.0 mph20.9 kmh 30.01 in1016.3 mb 0.00 in0.0 mm 0.00 in/hr0.0 mm/hr 0.00 in0.0 mm
06:45 AM 22.7°F-5.2°C 16.3°F-8.7°C 76% 10.0 mph WSW16.1 kmh WSW 14.0 mph22.5 kmh 30.01 in1016.3 mb 0.00 in0.0 mm 0.00 in/hr0.0 mm/hr 0.00 in0.0 mm
07:00 AM 22.7°F-5.2°C 16.9°F-8.4°C 78% 11.0 mph SW17.7 kmh SW 14.0 mph22.5 kmh 30.01 in1016.3 mb 0.00 in0.0 mm 0.00 in/hr0.0 mm/hr 0.00 in0.0 mm
07:15 AM 22.9°F-5.1°C 17.4°F-8.1°C 79% 15.0 mph SW24.1 kmh SW 15.0 mph24.1 kmh 30.00 in1015.9 mb 0.00 in0.0 mm 0.00 in/hr0.0 mm/hr 0.00 in0.0 mm
07:30 AM 23.1°F-4.9°C 17.9°F-7.8°C 80% 8.0 mph SW12.9 kmh SW 15.0 mph24.1 kmh 29.99 in1015.6 mb 0.00 in0.0 mm 0.00 in/hr0.0 mm/hr 0.00 in0.0 mm
07:45 AM 22.8°F-5.1°C 17.3°F-8.2°C 79% 12.0 mph SW19.3 kmh SW 15.0 mph24.1 kmh 29.97 in1014.9 mb 0.00 in0.0 mm 0.00 in/hr0.0 mm/hr 0.00 in0.0 mm
08:01 AM 22.7°F-5.2°C 16.9°F-8.4°C 78% 9.0 mph WSW14.5 kmh WSW 12.0 mph19.3 kmh 29.95 in1014.2 mb 0.00 in0.0 mm 0.00 in/hr0.0 mm/hr 0.00 in0.0 mm
08:15 AM 22.6°F-5.2°C 17.1°F-8.3°C 79% 11.0 mph SW17.7 kmh SW 15.0 mph24.1 kmh 29.94 in1013.9 mb 0.00 in0.0 mm 0.00 in/hr0.0 mm/hr 0.00 in0.0 mm
08:30 AM 22.7°F-5.2°C 17.8°F-7.9°C 81% 9.0 mph SW14.5 kmh SW 14.0 mph22.5 kmh 29.94 in1013.9 mb 0.00 in0.0 mm 0.00 in/hr0.0 mm/hr 0.00 in0.0 mm
08:45 AM 22.8°F-5.1°C 18.1°F-7.7°C 82% 11.0 mph SW17.7 kmh SW 15.0 mph24.1 kmh 29.93 in1013.5 mb 0.00 in0.0 mm 0.00 in/hr0.0 mm/hr 0.00 in0.0 mm
09:01 AM 22.9°F-5.1°C 18.0°F-7.8°C 81% 15.0 mph SW24.1 kmh SW 16.0 mph25.7 kmh 29.93 in1013.5 mb 0.00 in0.0 mm 0.00 in/hr0.0 mm/hr 0.00 in0.0 mm
09:15 AM 23.0°F-5.0°C 17.8°F-7.9°C 80% 11.0 mph SW17.7 kmh SW 16.0 mph25.7 kmh 29.94 in1013.9 mb 0.00 in0.0 mm 0.00 in/hr0.0 mm/hr 0.00 in0.0 mm
09:30 AM 23.2°F-4.9°C 18.3°F-7.6°C 81% 13.0 mph WSW20.9 kmh WSW 15.0 mph24.1 kmh 29.94 in1013.9 mb 0.00 in0.0 mm 0.00 in/hr0.0 mm/hr 0.00 in0.0 mm
09:45 AM 23.4°F-4.8°C 18.4°F-7.6°C 81% 11.0 mph WSW17.7 kmh WSW 15.0 mph24.1 kmh 29.95 in1014.2 mb 0.00 in0.0 mm 0.00 in/hr0.0 mm/hr 0.00 in0.0 mm
10:01 AM 23.5°F-4.7°C 18.3°F-7.6°C 80% 8.0 mph WSW12.9 kmh WSW 15.0 mph24.1 kmh 29.96 in1014.6 mb 0.00 in0.0 mm 0.00 in/hr0.0 mm/hr 0.00 in0.0 mm
10:15 AM 23.6°F-4.7°C 18.6°F-7.4°C 81% 7.0 mph WSW11.3 kmh WSW 13.0 mph20.9 kmh 29.96 in1014.6 mb 0.00 in0.0 mm 0.00 in/hr0.0 mm/hr 0.00 in0.0 mm
10:31 AM 23.8°F-4.6°C 18.5°F-7.5°C 80% 8.0 mph WSW12.9 kmh WSW 12.0 mph19.3 kmh 29.96 in1014.6 mb 0.00 in0.0 mm 0.00 in/hr0.0 mm/hr 0.00 in0.0 mm
10:45 AM 24.0°F-4.4°C 18.7°F-7.4°C 80% 11.0 mph SW17.7 kmh SW 13.0 mph20.9 kmh 29.96 in1014.6 mb 0.00 in0.0 mm 0.00 in/hr0.0 mm/hr 0.00 in0.0 mm
11:01 AM 24.6°F-4.1°C 19.0°F-7.2°C 79% 8.0 mph WSW12.9 kmh WSW 13.0 mph20.9 kmh 29.95 in1014.2 mb 0.00 in0.0 mm 0.00 in/hr0.0 mm/hr 0.00 in0.0 mm
11:15 AM 24.9°F-3.9°C 19.6°F-6.9°C 80% 9.0 mph WSW14.5 kmh WSW 13.0 mph20.9 kmh 29.94 in1013.9 mb 0.00 in0.0 mm 0.00 in/hr0.0 mm/hr 0.00 in0.0 mm
11:30 AM 25.5°F-3.6°C 20.5°F-6.4°C 81% 12.0 mph WSW19.3 kmh WSW 12.0 mph19.3 kmh 29.94 in1013.9 mb 0.00 in0.0 mm 0.00 in/hr0.0 mm/hr 0.00 in0.0 mm
11:45 AM 25.9°F-3.4°C 20.0°F-6.7°C 78% 7.0 mph W11.3 kmh W 13.0 mph20.9 kmh 29.93 in1013.5 mb 0.00 in0.0 mm 0.00 in/hr0.0 mm/hr 0.00 in0.0 mm
12:01 PM 26.8°F-2.9°C 20.9°F-6.2°C 78% 7.0 mph WSW11.3 kmh WSW 13.0 mph20.9 kmh 29.93 in1013.5 mb 0.00 in0.0 mm 0.00 in/hr0.0 mm/hr 0.00 in0.0 mm
12:15 PM 27.0°F-2.8°C 20.5°F-6.4°C 76% 9.0 mph W14.5 kmh W 13.0 mph20.9 kmh 29.92 in1013.2 mb 0.00 in0.0 mm 0.00 in/hr0.0 mm/hr 0.00 in0.0 mm
12:30 PM 27.9°F-2.3°C 21.6°F-5.8°C 77% 9.0 mph WSW14.5 kmh WSW 11.0 mph17.7 kmh 29.91 in1012.9 mb 0.00 in0.0 mm 0.00 in/hr0.0 mm/hr 0.00 in0.0 mm
12:45 PM 28.1°F-2.2°C 20.6°F-6.3°C 73% 8.0 mph W12.9 kmh W 11.0 mph17.7 kmh 29.90 in1012.5 mb 0.00 in0.0 mm 0.00 in/hr0.0 mm/hr 0.00 in0.0 mm
01:01 PM 28.8°F-1.8°C 20.9°F-6.2°C 72% 8.0 mph WSW12.9 kmh WSW 11.0 mph17.7 kmh 29.89 in1012.2 mb 0.00 in0.0 mm 0.00 in/hr0.0 mm/hr 0.00 in0.0 mm
01:15 PM 29.1°F-1.6°C 22.2°F-5.4°C 75% 6.0 mph WSW9.7 kmh WSW 9.0 mph14.5 kmh 29.88 in1011.9 mb 0.00 in0.0 mm 0.00 in/hr0.0 mm/hr 0.00 in0.0 mm
01:30 PM 29.2°F-1.6°C 22.3°F-5.4°C 75% 8.0 mph WSW12.9 kmh WSW 10.0 mph16.1 kmh 29.87 in1011.5 mb 0.00 in0.0 mm 0.00 in/hr0.0 mm/hr 0.00 in0.0 mm
01:45 PM 29.7°F-1.3°C 22.1°F-5.5°C 73% 7.0 mph NW11.3 kmh NW 10.0 mph16.1 kmh 29.87 in1011.5 mb 0.00 in0.0 mm 0.00 in/hr0.0 mm/hr 0.00 in0.0 mm
02:02 PM 30.9°F-0.6°C 23.0°F-5.0°C 72% 6.0 mph WNW9.7 kmh WNW 7.0 mph11.3 kmh 29.86 in1011.2 mb 0.00 in0.0 mm 0.00 in/hr0.0 mm/hr 0.00 in0.0 mm
02:15 PM 31.2°F-0.4°C 22.2°F-5.4°C 69% 7.0 mph WSW11.3 kmh WSW 11.0 mph17.7 kmh 29.85 in1010.8 mb 0.00 in0.0 mm 0.00 in/hr0.0 mm/hr 0.00 in0.0 mm
02:31 PM 31.6°F-0.2°C 22.3°F-5.4°C 68% 3.0 mph WNW4.8 kmh WNW 6.0 mph9.7 kmh 29.86 in1011.2 mb 0.00 in0.0 mm 0.00 in/hr0.0 mm/hr 0.00 in0.0 mm
02:45 PM 30.9°F-0.6°C 22.3°F-5.4°C 70% 5.0 mph WSW8.0 kmh WSW 8.0 mph12.9 kmh 29.86 in1011.2 mb 0.00 in0.0 mm 0.00 in/hr0.0 mm/hr 0.00 in0.0 mm
03:01 PM 31.6°F-0.2°C 22.3°F-5.4°C 68% 5.0 mph W8.0 kmh W 9.0 mph14.5 kmh 29.87 in1011.5 mb 0.00 in0.0 mm 0.00 in/hr0.0 mm/hr 0.00 in0.0 mm
03:15 PM 31.8°F-0.1°C 22.8°F-5.1°C 69% 4.0 mph WSW6.4 kmh WSW 9.0 mph14.5 kmh 29.86 in1011.2 mb 0.00 in0.0 mm 0.00 in/hr0.0 mm/hr 0.00 in0.0 mm
03:30 PM 32.0°F0.0°C 22.7°F-5.2°C 68% 6.0 mph WSW9.7 kmh WSW 9.0 mph14.5 kmh 29.86 in1011.2 mb 0.00 in0.0 mm 0.00 in/hr0.0 mm/hr 0.00 in0.0 mm
03:45 PM 32.1°F0.1°C 23.1°F-4.9°C 69% 6.0 mph NW9.7 kmh NW 7.0 mph11.3 kmh 29.87 in1011.5 mb 0.00 in0.0 mm 0.00 in/hr0.0 mm/hr 0.00 in0.0 mm
04:01 PM 32.2°F0.1°C 23.5°F-4.7°C 70% 2.0 mph NNW3.2 kmh NNW 4.0 mph6.4 kmh 29.87 in1011.5 mb 0.00 in0.0 mm 0.00 in/hr0.0 mm/hr 0.00 in0.0 mm
04:15 PM 32.3°F0.2°C 23.3°F-4.8°C 69% 2.0 mph W3.2 kmh W 4.0 mph6.4 kmh 29.87 in1011.5 mb 0.00 in0.0 mm 0.00 in/hr0.0 mm/hr 0.00 in0.0 mm
04:31 PM 32.4°F0.2°C 23.4°F-4.8°C 69% Calm Calm 2.0 mph3.2 kmh 29.88 in1011.9 mb 0.00 in0.0 mm 0.00 in/hr0.0 mm/hr 0.00 in0.0 mm
04:45 PM 32.6°F0.3°C 23.2°F-4.9°C 68% 2.0 mph NW3.2 kmh NW 3.0 mph4.8 kmh 29.88 in1011.9 mb 0.00 in0.0 mm 0.00 in/hr0.0 mm/hr 0.00 in0.0 mm
05:01 PM 32.7°F0.4°C 23.7°F-4.6°C 69% 1.0 mph N1.6 kmh N 6.0 mph9.7 kmh 29.88 in1011.9 mb 0.00 in0.0 mm 0.00 in/hr0.0 mm/hr 0.00 in0.0 mm
05:15 PM 32.3°F0.2°C 24.6°F-4.1°C 73% 3.0 mph NW4.8 kmh NW 7.0 mph11.3 kmh 29.88 in1011.9 mb 0.00 in0.0 mm 0.00 in/hr0.0 mm/hr 0.00 in0.0 mm
05:31 PM 31.6°F-0.2°C 24.6°F-4.1°C 75% 5.0 mph N8.0 kmh N 5.0 mph8.0 kmh 29.88 in1011.9 mb 0.00 in0.0 mm 0.00 in/hr0.0 mm/hr 0.00 in0.0 mm
05:45 PM 31.2°F-0.4°C 24.5°F-4.2°C 76% 2.0 mph WNW3.2 kmh WNW 5.0 mph8.0 kmh 29.89 in1012.2 mb 0.00 in0.0 mm 0.00 in/hr0.0 mm/hr 0.00 in0.0 mm
06:02 PM 31.0°F-0.6°C 24.3°F-4.3°C 76% 2.0 mph W3.2 kmh W 6.0 mph9.7 kmh 29.89 in1012.2 mb 0.00 in0.0 mm 0.00 in/hr0.0 mm/hr 0.00 in0.0 mm
06:15 PM 30.8°F-0.7°C 24.1°F-4.4°C 76% 2.0 mph WNW3.2 kmh WNW 6.0 mph9.7 kmh 29.90 in1012.5 mb 0.00 in0.0 mm 0.00 in/hr0.0 mm/hr 0.00 in0.0 mm
06:31 PM 30.8°F-0.7°C 24.5°F-4.2°C 77% 3.0 mph WSW4.8 kmh WSW 5.0 mph8.0 kmh 29.90 in1012.5 mb 0.00 in0.0 mm 0.00 in/hr0.0 mm/hr 0.00 in0.0 mm
06:45 PM 30.8°F-0.7°C 24.5°F-4.2°C 77% 1.0 mph WNW1.6 kmh WNW 5.0 mph8.0 kmh 29.91 in1012.9 mb 0.00 in0.0 mm 0.00 in/hr0.0 mm/hr 0.00 in0.0 mm
07:01 PM 30.7°F-0.7°C 24.7°F-4.1°C 78% 3.0 mph W4.8 kmh W 4.0 mph6.4 kmh 29.91 in1012.9 mb 0.00 in0.0 mm 0.00 in/hr0.0 mm/hr 0.00 in0.0 mm
07:16 PM 30.8°F-0.7°C 24.5°F-4.2°C 77% 4.0 mph WSW6.4 kmh WSW 4.0 mph6.4 kmh 29.92 in1013.2 mb 0.00 in0.0 mm 0.00 in/hr0.0 mm/hr 0.00 in0.0 mm
07:30 PM 30.8°F-0.7°C 24.8°F-4.0°C 78% 2.0 mph WSW3.2 kmh WSW 4.0 mph6.4 kmh 29.92 in1013.2 mb 0.00 in0.0 mm 0.00 in/hr0.0 mm/hr 0.00 in0.0 mm
07:45 PM 30.8°F-0.7°C 25.1°F-3.8°C 79% 4.0 mph WSW6.4 kmh WSW 5.0 mph8.0 kmh 29.92 in1013.2 mb 0.00 in0.0 mm 0.00 in/hr0.0 mm/hr 0.00 in0.0 mm
08:02 PM 30.7°F-0.7°C 25.9°F-3.4°C 82% 4.0 mph WSW6.4 kmh WSW 6.0 mph9.7 kmh 29.92 in1013.2 mb 0.00 in0.0 mm 0.00 in/hr0.0 mm/hr 0.00 in0.0 mm
08:16 PM 30.7°F-0.7°C 25.6°F-3.6°C 81% 3.0 mph WSW4.8 kmh WSW 5.0 mph8.0 kmh 29.93 in1013.5 mb 0.00 in0.0 mm 0.00 in/hr0.0 mm/hr 0.00 in0.0 mm
08:30 PM 30.8°F-0.7°C 25.7°F-3.5°C 81% 2.0 mph WSW3.2 kmh WSW 4.0 mph6.4 kmh 29.93 in1013.5 mb 0.00 in0.0 mm 0.00 in/hr0.0 mm/hr 0.00 in0.0 mm
08:45 PM 30.9°F-0.6°C 25.8°F-3.4°C 81% 2.0 mph WSW3.2 kmh WSW 5.0 mph8.0 kmh 29.93 in1013.5 mb 0.00 in0.0 mm 0.00 in/hr0.0 mm/hr 0.00 in0.0 mm
09:01 PM 31.0°F-0.6°C 25.9°F-3.4°C 81% 3.0 mph WSW4.8 kmh WSW 4.0 mph6.4 kmh 29.93 in1013.5 mb 0.00 in0.0 mm 0.00 in/hr0.0 mm/hr 0.00 in0.0 mm
09:15 PM 31.1°F-0.5°C 25.7°F-3.5°C 80% 3.0 mph WNW4.8 kmh WNW 5.0 mph8.0 kmh 29.94 in1013.9 mb 0.00 in0.0 mm 0.00 in/hr0.0 mm/hr 0.00 in0.0 mm
09:31 PM 31.4°F-0.3°C 25.7°F-3.5°C 79% 3.0 mph NW4.8 kmh NW 10.0 mph16.1 kmh 29.94 in1013.9 mb 0.00 in0.0 mm 0.00 in/hr0.0 mm/hr 0.00 in0.0 mm
09:45 PM 31.6°F-0.2°C 25.5°F-3.6°C 78% 5.0 mph WNW8.0 kmh WNW 9.0 mph14.5 kmh 29.94 in1013.9 mb 0.00 in0.0 mm 0.00 in/hr0.0 mm/hr 0.00 in0.0 mm
10:01 PM 31.7°F-0.2°C 25.3°F-3.7°C 77% 3.0 mph NW4.8 kmh NW 7.0 mph11.3 kmh 29.94 in1013.9 mb 0.00 in0.0 mm 0.00 in/hr0.0 mm/hr 0.00 in0.0 mm
10:15 PM 31.7°F-0.2°C 25.3°F-3.7°C 77% 4.0 mph W6.4 kmh W 7.0 mph11.3 kmh 29.94 in1013.9 mb 0.00 in0.0 mm 0.00 in/hr0.0 mm/hr 0.00 in0.0 mm
10:30 PM 31.7°F-0.2°C 25.6°F-3.6°C 78% 5.0 mph WSW8.0 kmh WSW 9.0 mph14.5 kmh 29.94 in1013.9 mb 0.00 in0.0 mm 0.00 in/hr0.0 mm/hr 0.00 in0.0 mm
10:45 PM 31.7°F-0.2°C 25.6°F-3.6°C 78% 6.0 mph W9.7 kmh W 7.0 mph11.3 kmh 29.94 in1013.9 mb 0.00 in0.0 mm 0.00 in/hr0.0 mm/hr 0.00 in0.0 mm
11:01 PM 31.7°F-0.2°C 25.6°F-3.6°C 78% 2.0 mph WNW3.2 kmh WNW 9.0 mph14.5 kmh 29.93 in1013.5 mb 0.00 in0.0 mm 0.00 in/hr0.0 mm/hr 0.00 in0.0 mm
11:15 PM 31.7°F-0.2°C 25.3°F-3.7°C 77% 5.0 mph NW8.0 kmh NW 9.0 mph14.5 kmh 29.94 in1013.9 mb 0.00 in0.0 mm 0.00 in/hr0.0 mm/hr 0.00 in0.0 mm
11:30 PM 31.8°F-0.1°C 25.4°F-3.7°C 77% 2.0 mph NW3.2 kmh NW 9.0 mph14.5 kmh 29.94 in1013.9 mb 0.00 in0.0 mm 0.00 in/hr0.0 mm/hr 0.00 in0.0 mm
11:45 PM 31.9°F-0.1°C 25.2°F-3.8°C 76% 3.0 mph NNW4.8 kmh NNW 8.0 mph12.9 kmh 29.94 in1013.9 mb 0.00 in0.0 mm 0.00 in/hr0.0 mm/hr 0.00 in0.0 mm